Time;durP1;ratioP1;P1;durP2;ratioP2;P2;SDS_P1;SDS_P2;PMS_P1;PMS_P2;Temp;Humidity;BMP_temperature;BMP_pressure;BME280_temperature;BME280_humidity;BME280_pressure;Samples;Min_cycle;Max_cycle;Signal;HPM_P1;HPM_P2
2022/07/27 00:01:56;;;;;;;5.40;3.03;;;17.60;58.20;;;16.89;59.91;97847.53;4997409;28;20882;-75
2022/07/27 00:04:23;;;;;;;3.73;3.43;;;17.60;58.40;;;16.96;59.83;97842.69;5002519;28;20450;-77
2022/07/27 00:06:50;;;;;;;3.87;3.33;;;17.70;58.40;;;16.79;60.77;97831.09;4997650;28;20484;-77
2022/07/27 00:09:18;;;;;;;3.13;2.93;;;17.60;58.60;;;16.72;60.61;97844.97;5002194;28;20493;-74
2022/07/27 00:11:47;;;;;;;4.30;3.30;;;17.60;58.80;;;16.72;60.50;97836.78;5003724;28;20525;-74
2022/07/27 00:14:14;;;;;;;4.50;3.13;;;17.60;59.00;;;16.79;60.69;97839.28;5003841;28;20834;-77
2022/07/27 00:16:42;;;;;;;3.10;2.90;;;17.60;59.20;;;16.86;60.29;97837.16;4996797;28;20452;-76
2022/07/27 00:19:09;;;;;;;3.50;3.20;;;17.70;59.30;;;16.92;60.07;97833.41;5003426;28;20963;-76
2022/07/27 00:21:37;;;;;;;3.90;3.27;;;17.70;59.20;;;17.01;60.21;97830.19;5005173;28;20514;-77
2022/07/27 00:24:04;;;;;;;3.20;2.90;;;17.80;59.30;;;17.01;59.96;97832.94;5001461;28;20534;-76
2022/07/27 00:26:32;;;;;;;6.83;3.33;;;17.80;58.90;;;16.95;59.99;97832.03;5003894;28;20474;-78
2022/07/27 00:29:00;;;;;;;3.80;3.27;;;17.80;58.90;;;16.88;60.10;97832.25;5004474;28;20505;-77
2022/07/27 00:31:28;;;;;;;3.50;3.13;;;17.80;59.00;;;16.97;60.31;97830.69;4997934;28;20454;-76
2022/07/27 00:33:55;;;;;;;3.47;3.10;;;17.80;59.40;;;17.13;59.83;97830.81;4999500;28;20817;-76
2022/07/27 00:36:22;;;;;;;3.57;2.60;;;17.90;59.50;;;17.16;60.39;97838.47;5015307;28;20454;-73
2022/07/27 00:38:50;;;;;;;2.80;2.60;;;17.90;59.80;;;17.23;59.42;97814.53;5002122;28;20874;-77
2022/07/27 00:41:17;;;;;;;4.50;2.90;;;18.20;59.50;;;17.54;58.58;97839.25;4998101;28;20466;-77
2022/07/27 00:43:55;;;;;;;3.57;2.73;;;18.30;59.10;;;17.59;59.14;97848.56;5015395;28;20860;-77
2022/07/27 00:46:27;;;;;;;5.20;3.10;;;18.30;59.10;;;17.21;59.67;97838.53;5000505;28;20557;-78
2022/07/27 00:48:54;;;;;;;5.37;2.83;;;18.10;59.10;;;17.11;59.63;97833.00;5013363;28;20463;-77
2022/07/27 00:51:22;;;;;;;3.50;3.20;;;18.00;59.20;;;17.12;60.42;97843.63;5000285;28;20470;-75
2022/07/27 00:53:51;;;;;;;3.00;2.80;;;17.90;59.80;;;17.39;60.20;97844.66;4999571;28;20939;-78
2022/07/27 00:56:19;;;;;;;4.53;3.77;;;18.10;60.00;;;17.34;59.82;97837.25;5001139;28;21619;-78
2022/07/27 00:58:50;;;;;;;3.80;3.33;;;18.20;60.00;;;17.11;60.43;97846.66;5001383;28;20459;-75
2022/07/27 01:01:19;;;;;;;3.03;2.83;;;18.00;60.00;;;17.16;61.06;97841.22;4995674;28;20474;-76
2022/07/27 01:03:48;;;;;;;3.23;3.03;;;17.90;60.70;;;17.32;59.60;97844.03;4984269;28;20463;-74
2022/07/27 01:06:16;;;;;;;4.37;3.03;;;18.10;60.00;;;17.42;59.53;97838.66;4998161;28;20478;-76
2022/07/27 01:08:44;;;;;;;6.33;3.90;;;18.20;60.00;;;16.97;60.57;97830.69;4998648;28;21013;-72
2022/07/27 01:11:12;;;;;;;4.87;3.10;;;17.90;60.10;;;16.81;61.19;97840.66;5013910;28;20468;-73
2022/07/27 01:13:39;;;;;;;5.40;3.17;;;17.80;60.60;;;16.84;61.62;97852.97;4998869;28;20463;-77
2022/07/27 01:16:07;;;;;;;3.63;3.20;;;17.70;61.00;;;17.07;60.81;97843.63;4996529;28;20862;-76
2022/07/27 01:18:38;;;;;;;6.17;3.90;;;17.80;61.00;;;16.84;60.30;97810.16;4999717;28;21060;-75
2022/07/27 01:21:09;;;;;;;3.63;3.33;;;17.90;60.80;;;16.61;62.14;97833.16;4993517;28;20478;-76
2022/07/27 01:23:38;;;;;;;4.50;3.43;;;17.60;60.80;;;16.47;62.25;97835.47;4999534;28;20462;-75
2022/07/27 01:26:06;;;;;;;4.50;3.40;;;17.40;61.50;;;16.13;63.19;97820.13;5011738;28;20478;-75
2022/07/27 01:28:33;;;;;;;3.70;3.40;;;17.20;62.20;;;16.04;63.74;97840.75;5000911;28;20475;-77
2022/07/27 01:31:01;;;;;;;4.23;3.70;;;17.00;62.80;;;15.98;64.33;97828.16;4994757;28;20476;-71
2022/07/27 01:33:29;;;;;;;4.63;4.03;;;16.90;63.40;;;15.90;64.20;97823.16;5014993;28;20493;-76
2022/07/27 01:35:57;;;;;;;3.70;3.40;;;16.80;64.00;;;15.76;64.88;97826.25;5013650;28;20451;-78
2022/07/27 01:38:24;;;;;;;6.20;4.20;;;16.70;64.40;;;15.56;65.84;97829.53;4999122;28;20868;-77
2022/07/27 01:40:54;;;;;;;4.23;3.93;;;16.50;65.30;;;15.60;65.98;97827.94;5011435;28;20463;-78
2022/07/27 01:43:22;;;;;;;4.53;4.10;;;16.50;66.10;;;15.48;66.19;97829.97;4997948;28;20474;-73
2022/07/27 01:45:50;;;;;;;4.87;4.50;;;16.40;66.90;;;15.17;67.21;97814.03;4989519;28;20479;-79
2022/07/27 01:48:17;;;;;;;4.83;4.13;;;16.20;67.90;;;15.07;67.97;97830.22;5002655;28;20564;-74
2022/07/27 01:50:45;;;;;;;4.33;4.03;;;16.10;68.90;;;15.01;68.05;97840.19;5004338;28;20465;-71
2022/07/27 01:53:12;;;;;;;6.00;4.13;;;16.00;70.10;;;15.03;68.51;97832.63;4997157;28;20463;-77
2022/07/27 01:55:39;;;;;;;4.37;4.07;;;15.90;71.10;;;15.08;67.56;97804.66;5002779;28;20473;-76
2022/07/27 01:58:09;;;;;;;4.57;3.73;;;16.00;71.30;;;15.12;67.64;97827.59;4999017;28;20541;-78
2022/07/27 02:00:37;;;;;;;4.37;4.00;;;16.10;71.40;;;14.83;68.72;97819.53;4999451;28;20529;-77
2022/07/27 02:03:07;;;;;;;5.13;3.80;;;15.90;72.10;;;14.93;68.45;97827.03;4999178;28;20466;-76
2022/07/27 02:05:35;;;;;;;3.50;3.30;;;15.80;72.80;;;14.88;68.95;97816.88;5001548;28;20482;-78
2022/07/27 02:08:03;;;;;;;4.30;3.90;;;15.80;73.40;;;15.05;68.15;97813.31;5006661;28;20447;-75
2022/07/27 02:10:31;;;;;;;5.33;4.17;;;15.90;73.60;;;14.93;68.48;97816.94;5005260;28;20455;-78
2022/07/27 02:12:57;;;;;;;4.23;3.73;;;15.90;73.40;;;14.73;69.61;97822.91;4998191;28;22492;-75
2022/07/27 02:15:30;;;;;;;4.00;3.57;;;15.70;74.30;;;14.77;69.31;97820.50;5012179;28;20476;-78
2022/07/27 02:17:57;;;;;;;5.83;4.20;;;15.70;75.10;;;14.79;69.50;97819.19;5000719;28;20559;-78
2022/07/27 02:20:25;;;;;;;4.47;4.07;;;15.70;75.10;;;14.61;70.09;97817.50;4995579;28;20466;-75
2022/07/27 02:22:53;;;;;;;4.30;3.73;;;15.60;75.60;;;14.64;70.23;97810.75;5000245;28;21147;-76
2022/07/27 02:25:20;;;;;;;5.90;3.80;;;15.50;76.50;;;14.55;70.86;97807.63;4998957;28;20533;-77
2022/07/27 02:27:47;;;;;;;6.77;4.13;;;15.50;77.20;;;14.64;69.89;97805.31;5000261;28;20493;-71
2022/07/27 02:30:16;;;;;;;4.50;4.00;;;15.50;76.70;;;14.54;69.76;97804.06;4998354;28;20471;-78
2022/07/27 02:32:44;;;;;;;4.33;3.80;;;15.60;76.20;;;14.51;70.08;97801.84;4995958;28;20465;-74
2022/07/27 02:35:12;;;;;;;3.90;3.60;;;15.50;76.60;;;14.42;69.93;97804.16;5000037;28;20874;-77
2022/07/27 02:37:39;;;;;;;5.00;4.33;;;15.50;76.30;;;14.32;70.59;97812.13;5014501;28;20991;-75
2022/07/27 02:40:08;;;;;;;5.43;4.20;;;15.30;76.90;;;14.30;70.52;97816.97;4999734;28;20553;-76
2022/07/27 02:42:35;;;;;;;5.43;4.40;;;15.30;77.70;;;14.41;70.07;97802.50;4996691;28;20477;-78
2022/07/27 02:45:03;;;;;;;4.50;4.07;;;15.30;77.70;;;14.42;70.14;97803.34;5001745;28;20556;-78
2022/07/27 02:47:30;;;;;;;5.37;4.00;;;15.30;77.80;;;14.12;70.27;97756.38;5016795;28;20469;-77
2022/07/27 02:49:59;;;;;;;7.73;4.80;;;15.30;78.00;;;14.42;70.70;97804.16;5001216;28;20458;-76
2022/07/27 02:52:26;;;;;;;5.20;4.77;;;15.40;78.30;;;14.52;69.97;97791.81;5005084;28;20489;-77
2022/07/27 02:54:53;;;;;;;5.10;4.60;;;15.40;77.80;;;14.47;70.29;97805.31;5013848;28;20457;-75
2022/07/27 02:57:20;;;;;;;5.43;3.80;;;15.40;77.80;;;14.50;70.15;97799.41;5008756;28;20522;-76
2022/07/27 02:59:48;;;;;;;5.67;4.53;;;15.50;78.10;;;14.38;70.57;97803.00;5000375;28;20513;-76
2022/07/27 03:02:15;;;;;;;5.13;4.63;;;15.40;78.20;;;14.25;71.07;97803.31;5005245;28;20526;-77
2022/07/27 03:04:43;;;;;;;5.90;5.00;;;15.30;78.80;;;14.16;70.82;97779.25;5010804;28;20458;-77
2022/07/27 03:07:11;;;;;;;4.70;4.30;;;15.30;79.10;;;14.27;71.06;97806.59;4999996;28;20476;-75
2022/07/27 03:09:38;;;;;;;5.00;4.50;;;15.20;79.20;;;14.15;71.96;97804.78;5002085;28;20461;-74
2022/07/27 03:12:07;;;;;;;5.17;4.67;;;15.10;80.20;;;14.08;72.34;97806.81;5002430;28;20493;-73
2022/07/27 03:14:34;;;;;;;5.50;5.10;;;15.00;80.80;;;14.06;72.39;97814.41;5000053;28;20471;-75
2022/07/27 03:17:01;;;;;;;4.80;4.50;;;15.00;81.40;;;14.17;72.39;97815.41;4994011;28;20994;-78
2022/07/27 03:19:29;;;;;;;5.97;5.37;;;15.10;81.80;;;14.19;72.41;97817.88;5004310;28;20464;-77
2022/07/27 03:21:56;;;;;;;5.53;5.03;;;15.10;81.90;;;14.22;72.46;97820.13;5016826;28;20538;-76
2022/07/27 03:24:24;;;;;;;6.20;5.70;;;15.10;81.90;;;14.23;72.39;97810.88;5002719;28;20475;-74
2022/07/27 03:26:52;;;;;;;5.63;5.13;;;15.20;81.90;;;14.33;72.02;97811.09;5003439;28;20861;-71
2022/07/27 03:29:19;;;;;;;6.27;5.50;;;15.20;81.70;;;14.39;72.06;97810.09;5003664;28;20516;-75
2022/07/27 03:31:46;;;;;;;10.87;5.30;;;15.30;81.30;;;14.27;72.47;97818.31;5005146;28;20457;-77
2022/07/27 03:34:14;;;;;;;5.90;5.40;;;15.20;81.60;;;14.36;72.32;97818.75;5004934;28;20725;-77
2022/07/27 03:36:41;;;;;;;6.00;5.33;;;15.20;82.20;;;14.34;72.29;97820.88;5002806;28;20466;-74
2022/07/27 03:39:09;;;;;;;5.90;5.40;;;15.30;82.20;;;14.25;72.34;97819.63;5000784;28;20457;-75
2022/07/27 03:41:37;;;;;;;5.93;5.40;;;15.20;82.20;;;14.19;72.91;97823.31;5006679;28;20489;-76
2022/07/27 03:44:05;;;;;;;5.70;4.83;;;15.20;82.40;;;14.15;72.87;97821.06;4999591;28;20535;-73
2022/07/27 03:46:32;;;;;;;6.07;5.53;;;15.10;82.90;;;14.42;72.37;97825.91;4999233;28;20472;-75
2022/07/27 03:49:00;;;;;;;5.60;5.07;;;15.20;82.30;;;14.00;72.30;97789.03;5002316;28;20470;-76
2022/07/27 03:51:29;;;;;;;5.70;5.27;;;15.30;82.30;;;14.33;72.59;97837.41;5006838;28;20463;-76
2022/07/27 03:53:57;;;;;;;7.03;6.10;;;15.20;82.60;;;14.34;72.25;97841.78;5010459;28;20489;-77
2022/07/27 03:56:24;;;;;;;6.23;5.70;;;15.20;82.50;;;14.32;72.65;97850.16;5006029;28;20839;-76
2022/07/27 03:58:53;;;;;;;6.37;5.83;;;15.30;82.30;;;14.19;73.09;97839.63;4998454;28;20540;-80
2022/07/27 04:01:20;;;;;;;6.30;5.80;;;15.20;82.50;;;14.25;72.87;97846.78;4989708;28;20489;-75
2022/07/27 04:03:47;;;;;;;7.60;6.30;;;15.20;82.90;;;14.20;73.18;97844.00;4999975;28;20461;-76
2022/07/27 04:06:15;;;;;;;6.30;5.77;;;15.20;82.90;;;14.35;73.11;97841.56;4986471;28;20976;-75
2022/07/27 04:08:42;;;;;;;5.90;5.40;;;15.20;83.10;;;14.56;71.94;97831.03;4999176;28;20858;-74
2022/07/27 04:11:12;;;;;;;6.33;5.73;;;15.50;81.90;;;14.50;72.08;97834.75;5018874;28;20473;-76
2022/07/27 04:13:39;;;;;;;6.70;6.20;;;15.50;81.70;;;14.48;71.87;97834.13;5002348;28;20466;-74
2022/07/27 04:16:07;;;;;;;6.90;6.00;;;15.50;81.40;;;14.39;72.25;97836.44;5002535;28;20459;-75
2022/07/27 04:18:35;;;;;;;6.80;5.10;;;15.40;81.90;;;14.52;71.79;97836.13;5002417;28;20976;-74
2022/07/27 04:21:05;;;;;;;6.37;5.73;;;15.50;81.70;;;14.68;71.29;97831.78;5000723;28;20473;-74
2022/07/27 04:23:33;;;;;;;8.27;6.10;;;15.60;81.40;;;14.64;71.48;97827.91;5003784;28;20554;-78
2022/07/27 04:26:00;;;;;;;5.77;5.33;;;15.60;81.20;;;14.80;71.45;97825.47;5000043;28;20464;-74
2022/07/27 04:28:27;;;;;;;6.20;5.60;;;15.70;81.50;;;15.44;69.00;97830.47;4999292;28;20482;-78
2022/07/27 04:30:55;;;;;;;6.13;5.53;;;16.30;79.30;;;16.16;66.66;97828.91;5004478;28;20477;-77
2022/07/27 04:33:24;;;;;;;5.53;5.00;;;17.10;76.30;;;16.91;63.62;97839.94;4993114;28;20455;-77
2022/07/27 04:35:51;;;;;;;7.43;5.07;;;18.00;72.90;;;16.98;63.34;97851.44;5007367;28;20473;-76
2022/07/27 04:38:18;;;;;;;5.33;4.83;;;18.10;72.00;;;17.09;62.76;97852.34;5017709;28;20482;-75
2022/07/27 04:40:45;;;;;;;7.37;5.47;;;18.10;71.40;;;17.24;61.83;97853.56;5017809;28;20501;-72
2022/07/27 04:43:12;;;;;;;5.50;5.10;;;18.40;70.50;;;17.06;62.27;97852.88;5016985;28;20467;-78
2022/07/27 04:45:39;;;;;;;5.50;5.10;;;18.40;70.20;;;16.84;63.58;97855.69;5018173;28;21405;-76
2022/07/27 04:48:07;;;;;;;8.53;4.53;;;18.10;70.50;;;16.66;64.14;97865.06;5007122;28;20482;-78
2022/07/27 04:50:40;;;;;;;5.70;4.87;;;17.80;71.20;;;16.43;63.92;97804.34;5014277;28;20487;-79
2022/07/27 04:53:09;;;;;;;5.07;4.77;;;17.80;71.70;;;16.87;64.23;97859.81;5011571;28;20470;-73
2022/07/27 04:55:37;;;;;;;6.43;5.00;;;17.90;71.60;;;17.04;63.33;97860.53;5011812;28;20463;-77
2022/07/27 04:58:04;;;;;;;5.23;4.73;;;18.10;71.60;;;17.48;62.52;97870.34;5001516;28;20471;-74
2022/07/27 05:00:31;;;;;;;6.33;5.27;;;18.30;71.50;;;18.36;59.75;97868.00;5014130;28;20940;-81
2022/07/27 05:02:59;;;;;;;9.43;5.10;;;19.20;69.50;;;18.82;57.74;97870.00;5009710;28;20487;-82
2022/07/27 05:05:27;;;;;;;5.70;5.20;;;19.70;67.60;;;18.40;59.11;97869.09;4999848;28;20534;-79
2022/07/27 05:07:55;;;;;;;5.87;5.37;;;19.40;67.50;;;17.99;60.10;97882.63;5034267;28;20459;-75
2022/07/27 05:10:24;;;;;;;4.57;4.20;;;19.30;67.50;;;17.52;61.61;97887.03;5012554;28;20513;-75
2022/07/27 05:12:51;;;;;;;5.10;4.60;;;18.70;68.40;;;17.08;63.86;97875.28;5026961;28;20468;-79
2022/07/27 05:15:19;;;;;;;6.03;5.30;;;18.30;69.70;;;16.94;63.48;97858.50;5010107;28;20455;-79
2022/07/27 05:17:46;;;;;;;6.30;5.77;;;18.10;70.60;;;16.83;64.76;97879.44;5008477;28;20535;-76
2022/07/27 05:20:15;;;;;;;6.27;4.70;;;17.90;71.20;;;16.62;65.11;97881.16;5009542;28;20473;-77
2022/07/27 05:22:42;;;;;;;5.50;5.00;;;17.70;72.00;;;16.95;64.62;97868.34;5007440;28;20466;-74
2022/07/27 05:25:13;;;;;;;7.47;5.43;;;17.70;72.70;;;16.64;64.49;97827.16;5010062;28;20460;-77
2022/07/27 05:27:41;;;;;;;6.23;5.10;;;17.90;72.50;;;16.83;65.13;97871.25;5011930;28;20471;-81
2022/07/27 05:30:12;;;;;;;5.57;5.10;;;17.80;72.60;;;16.93;64.92;97878.69;5011862;28;20451;-78
2022/07/27 05:32:39;;;;;;;5.90;5.50;;;17.80;72.90;;;16.77;65.32;97871.47;5008728;28;20487;-78
2022/07/27 05:35:12;;;;;;;5.57;5.17;;;17.80;73.10;;;16.69;66.07;97873.56;5001955;28;20465;-82
2022/07/27 05:37:39;;;;;;;5.40;4.90;;;17.60;73.60;;;17.03;65.26;97890.78;4999453;28;20475;-75
2022/07/27 05:40:11;;;;;;;7.20;5.53;;;17.80;73.60;;;17.04;65.20;97881.50;4999097;28;20464;-83
2022/07/27 05:42:41;;;;;;;9.00;5.20;;;17.90;73.40;;;17.48;63.56;97899.59;4995219;28;20597;-74
2022/07/27 05:45:10;;;;;;;4.97;4.60;;;18.20;73.00;;;17.25;64.27;97896.97;4995189;28;20463;-80
2022/07/27 05:47:38;;;;;;;5.50;5.10;;;18.20;72.70;;;17.12;64.69;97906.41;4999912;28;20507;-83
2022/07/27 05:50:07;;;;;;;5.90;4.80;;;18.10;72.80;;;17.11;64.87;97910.22;4997005;28;20467;-81
2022/07/27 05:52:34;;;;;;;5.40;4.90;;;18.00;73.40;;;17.17;64.77;97897.44;4997931;28;20464;-82
2022/07/27 05:55:02;;;;;;;6.87;5.20;;;18.00;73.30;;;17.53;63.47;97902.34;5014541;28;20452;-81
2022/07/27 05:57:31;;;;;;;6.27;5.63;;;18.40;72.80;;;17.72;63.18;97905.47;4999005;28;20447;-84
2022/07/27 06:00:00;;;;;;;6.87;5.70;;;18.40;72.60;;;18.05;62.34;97908.91;4996851;28;21020;-80
2022/07/27 06:02:30;;;;;;;6.47;4.80;;;18.80;71.70;;;18.53;60.04;97905.22;5011050;28;20450;-75
2022/07/27 06:04:58;;;;;;;6.33;4.90;;;19.30;70.30;;;18.30;60.82;97895.59;4998675;28;20557;-74
2022/07/27 06:10:11;;;;;;;5.20;4.80;;;19.40;69.70;;;18.60;59.33;97845.63;5013494;28;20460;-71
2022/07/27 06:12:42;;;;;;;4.93;4.57;;;19.90;68.80;;;19.23;58.40;97903.94;4994980;28;20455;-73
2022/07/27 06:15:12;;;;;;;5.10;4.60;;;20.10;68.10;;;19.13;58.11;97903.97;4995135;28;20460;-74
2022/07/27 06:17:40;;;;;;;5.10;4.70;;;20.00;67.40;;;19.09;58.21;97898.19;4991966;28;20473;-75
2022/07/27 06:20:09;;;;;;;5.40;5.00;;;20.00;67.40;;;19.05;58.62;97888.91;5009770;28;20455;-76
2022/07/27 06:22:45;;;;;;;5.03;4.43;;;20.00;67.50;;;19.02;58.54;97893.00;5007622;28;21090;-74
2022/07/27 06:25:13;;;;;;;5.47;4.93;;;20.10;67.30;;;18.88;59.19;97892.72;4999234;28;20871;-74
2022/07/27 06:27:43;;;;;;;5.03;4.30;;;20.00;67.30;;;19.04;58.81;97899.03;4993954;28;20478;-75
2022/07/27 06:30:19;;;;;;;5.23;4.60;;;20.00;67.60;;;19.10;58.76;97891.63;4996941;28;20590;-74
2022/07/27 06:32:47;;;;;;;4.67;4.27;;;20.00;67.30;;;18.94;58.34;97864.22;5012505;28;20920;-75
2022/07/27 06:35:14;;;;;;;4.83;4.47;;;20.00;67.20;;;19.35;58.30;97909.94;5000407;28;20465;-76
2022/07/27 06:37:42;;;;;;;4.23;3.83;;;20.10;67.40;;;19.15;58.60;97909.97;4999440;28;20470;-74
2022/07/27 06:40:13;;;;;;;4.67;4.27;;;20.20;66.90;;;19.27;58.62;97901.47;5001177;28;20472;-74
2022/07/27 06:42:42;;;;;;;4.70;4.30;;;20.20;67.10;;;19.34;58.54;97896.56;4999414;28;20459;-73
2022/07/27 06:45:11;;;;;;;4.70;4.40;;;20.30;67.00;;;19.24;58.06;97854.38;4997861;28;20553;-75
2022/07/27 06:47:40;;;;;;;4.67;4.27;;;20.40;66.90;;;19.72;57.56;97907.97;4998610;28;21316;-72
2022/07/27 06:50:08;;;;;;;5.17;4.77;;;20.60;66.80;;;19.71;57.76;97906.31;4992404;28;20458;-75
2022/07/27 06:52:36;;;;;;;5.47;4.47;;;20.60;66.40;;;19.67;57.90;97899.78;5016601;28;20561;-75
2022/07/27 06:55:04;;;;;;;4.50;4.03;;;20.60;66.50;;;19.52;58.03;97885.00;4997088;28;20463;-72
2022/07/27 06:57:31;;;;;;;4.43;3.83;;;20.40;66.70;;;19.63;57.67;97907.72;4997089;28;20466;-74
2022/07/27 07:00:00;;;;;;;4.07;3.67;;;20.60;66.50;;;19.56;58.19;97909.91;4999271;28;20495;-75
2022/07/27 07:02:27;;;;;;;5.33;3.80;;;20.40;66.70;;;19.50;58.29;97906.38;5003675;28;20478;-75
2022/07/27 07:04:54;;;;;;;7.30;3.90;;;20.40;66.80;;;19.78;58.08;97906.84;5000069;28;20467;-75
2022/07/27 07:07:21;;;;;;;4.13;3.80;;;20.50;67.00;;;19.98;57.24;97899.69;5002498;28;20455;-74
2022/07/27 07:09:48;;;;;;;4.13;3.83;;;20.70;66.50;;;19.99;57.35;97904.09;5001905;28;20494;-75
2022/07/27 07:12:17;;;;;;;5.83;4.33;;;20.70;66.40;;;20.04;56.90;97898.56;4997260;28;20463;-74
2022/07/27 07:14:44;;;;;;;4.90;4.23;;;20.90;66.30;;;20.31;56.57;97894.59;5003102;28;20555;-75
2022/07/27 07:17:13;;;;;;;4.13;3.80;;;21.00;66.10;;;20.41;56.35;97896.47;4999857;28;20901;-77
2022/07/27 07:19:40;;;;;;;4.53;3.97;;;21.30;65.90;;;20.80;54.66;97881.13;5002147;28;20475;-75
2022/07/27 07:22:07;;;;;;;4.27;3.97;;;21.50;64.80;;;20.83;55.12;97897.03;5002269;28;20578;-73
2022/07/27 07:24:35;;;;;;;4.27;3.87;;;21.60;65.00;;;20.99;54.59;97886.78;5000810;28;20468;-75
2022/07/27 07:27:02;;;;;;;4.23;3.83;;;21.70;64.50;;;21.24;53.78;97895.91;4999655;28;20471;-75
2022/07/27 07:29:29;;;;;;;4.63;3.37;;;22.10;64.00;;;21.01;54.40;97887.31;5014920;28;20482;-71
2022/07/27 07:31:57;;;;;;;3.73;3.40;;;21.90;63.80;;;21.00;54.80;97874.69;5018721;28;20456;-77
2022/07/27 07:34:27;;;;;;;3.83;3.60;;;21.90;64.20;;;21.29;53.59;97892.28;5005119;28;20577;-75
2022/07/27 07:36:54;;;;;;;4.37;3.97;;;22.00;63.90;;;21.23;53.86;97878.59;5005705;28;20506;-75
2022/07/27 07:39:21;;;;;;;4.10;3.80;;;22.10;63.60;;;20.94;54.70;97882.13;5002256;28;20462;-75
2022/07/27 07:41:49;;;;;;;4.00;3.70;;;21.90;63.90;;;21.05;54.20;97882.88;5009234;28;20450;-77
2022/07/27 07:44:16;;;;;;;4.00;3.60;;;21.90;63.70;;;21.18;53.78;97889.66;5009998;28;20529;-73
2022/07/27 07:46:43;;;;;;;4.37;3.90;;;22.00;63.30;;;21.21;53.93;97883.56;5007627;28;20497;-75
2022/07/27 07:49:11;;;;;;;5.70;3.70;;;22.00;63.70;;;21.22;53.96;97878.88;5012431;28;20475;-75
2022/07/27 07:51:39;;;;;;;4.43;4.00;;;22.00;63.50;;;21.70;52.78;97880.91;5002919;28;20568;-76
2022/07/27 07:54:07;;;;;;;4.00;3.70;;;22.40;63.00;;;21.58;53.35;97873.03;4995862;28;20594;-73
2022/07/27 07:56:34;;;;;;;6.60;4.10;;;22.50;62.70;;;22.11;52.16;97867.78;5002350;28;20539;-74
2022/07/27 07:59:03;;;;;;;3.70;3.40;;;22.80;62.60;;;22.27;51.38;97871.13;4999373;28;21201;-76
2022/07/27 08:01:32;;;;;;;3.93;3.63;;;23.10;62.00;;;22.23;51.13;97859.91;5002171;28;20461;-76
2022/07/27 08:04:00;;;;;;;4.10;3.80;;;23.10;61.80;;;22.31;50.48;97836.44;5003950;28;20458;-76
2022/07/27 08:06:27;;;;;;;3.90;3.60;;;23.30;61.20;;;22.57;49.97;97875.44;5000227;28;20553;-76
2022/07/27 08:08:56;;;;;;;4.57;4.20;;;23.40;60.60;;;22.36;50.63;97875.66;5002888;28;20551;-76
2022/07/27 08:11:23;;;;;;;5.00;3.87;;;23.30;60.80;;;21.99;51.02;97866.28;5002582;28;20558;-78
2022/07/27 08:13:51;;;;;;;5.63;4.07;;;22.90;60.80;;;21.76;52.17;97874.25;5003742;28;20471;-75
2022/07/27 08:16:18;;;;;;;4.60;4.13;;;22.60;61.30;;;21.71;52.40;97877.03;4997199;28;20470;-76
2022/07/27 08:18:45;;;;;;;4.43;4.03;;;22.50;61.50;;;21.76;52.63;97879.75;5004434;28;20525;-75
2022/07/27 08:21:14;;;;;;;4.47;4.03;;;22.60;61.70;;;22.17;51.42;97877.59;5017633;28;20485;-76
2022/07/27 08:23:41;;;;;;;6.33;5.00;;;22.80;61.40;;;22.36;51.27;97878.41;5000394;28;20452;-75
2022/07/27 08:26:10;;;;;;;4.20;3.80;;;23.10;61.30;;;22.71;50.06;97880.19;5001091;28;20468;-74
2022/07/27 08:28:37;;;;;;;4.17;3.80;;;23.40;60.70;;;22.23;51.02;97854.41;4997469;28;20477;-73
2022/07/27 08:31:04;;;;;;;4.60;4.20;;;23.20;61.10;;;22.22;52.05;97883.84;5015590;28;20455;-75
2022/07/27 08:33:32;;;;;;;5.10;4.43;;;23.20;61.30;;;21.79;52.92;97898.41;4996558;28;20471;-74
2022/07/27 08:35:59;;;;;;;4.97;4.43;;;22.80;61.30;;;21.63;53.67;97896.91;4997109;28;20450;-79
2022/07/27 08:38:27;;;;;;;4.93;4.50;;;22.60;62.20;;;21.60;53.57;97886.47;5007935;28;20467;-73
2022/07/27 08:40:56;;;;;;;4.53;4.20;;;22.40;62.00;;;21.64;53.26;97893.03;4995288;28;20460;-74
2022/07/27 08:43:25;;;;;;;4.63;4.27;;;22.40;62.10;;;21.39;53.75;97896.88;4989224;28;21377;-73
2022/07/27 08:45:55;;;;;;;5.83;5.10;;;22.30;61.90;;;21.56;53.21;97890.91;4997584;28;20553;-72
2022/07/27 08:48:24;;;;;;;3.90;3.70;;;22.30;62.00;;;21.54;51.97;97877.50;5000313;28;20480;-73
2022/07/27 08:50:52;;;;;;;8.03;5.07;;;22.40;61.00;;;21.48;52.72;97895.97;5014579;28;20477;-73
2022/07/27 08:53:21;;;;;;;5.20;4.40;;;22.30;61.30;;;21.51;52.57;97889.88;4998817;28;20456;-71
2022/07/27 08:55:48;;;;;;;4.70;4.40;;;22.30;61.40;;;21.59;52.16;97884.84;4995349;28;20474;-71
2022/07/27 08:58:16;;;;;;;4.70;4.30;;;22.30;60.90;;;21.89;51.61;97882.88;5013723;28;20823;-72
2022/07/27 09:00:48;;;;;;;5.00;4.60;;;22.50;61.00;;;22.15;50.85;97890.81;4998312;28;20533;-73
2022/07/27 09:03:19;;;;;;;7.03;5.10;;;22.80;60.50;;;22.04;50.63;97885.44;4999879;28;20459;-72
2022/07/27 09:05:48;;;;;;;5.00;4.60;;;22.80;59.90;;;21.94;50.50;97886.41;4996348;28;20951;-71
2022/07/27 09:08:20;;;;;;;4.80;4.40;;;22.80;59.80;;;21.90;50.29;97884.53;4999819;28;20555;-72
2022/07/27 09:10:48;;;;;;;5.10;4.80;;;22.70;59.40;;;21.90;49.71;97884.53;4994371;28;20975;-72
2022/07/27 09:13:25;;;;;;;3.90;3.60;;;22.70;59.00;;;21.94;49.59;97869.91;5002543;28;20550;-71
2022/07/27 09:15:57;;;;;;;5.80;4.37;;;22.70;58.60;;;22.26;48.99;97886.84;4995033;28;20466;-72
2022/07/27 09:18:28;;;;;;;4.40;4.00;;;22.90;58.80;;;22.38;48.85;97886.38;4999312;28;21268;-72
2022/07/27 09:21:14;;;;;;;4.70;4.30;;;23.00;58.70;;;22.85;47.49;97881.06;4999246;28;20998;-73
2022/07/27 09:23:45;;;;;;;3.90;3.60;;;23.40;58.10;;;23.25;46.72;97882.59;5000908;28;20463;-73
2022/07/27 09:26:19;;;;;;;6.10;3.97;;;23.80;57.80;;;23.65;46.18;97880.25;4990751;28;20528;-73
2022/07/27 09:28:46;;;;;;;4.13;3.40;;;24.20;57.50;;;23.86;45.20;97877.09;4998553;28;21007;-72
2022/07/27 09:31:16;;;;;;;4.43;3.70;;;24.40;56.80;;;23.70;44.92;97847.06;4996386;28;20981;-71
2022/07/27 09:33:46;;;;;;;3.97;3.70;;;24.60;56.60;;;23.91;45.14;97877.00;4995749;28;20538;-72
2022/07/27 09:36:14;;;;;;;4.57;3.77;;;24.60;56.50;;;24.14;44.94;97879.84;4994437;28;20471;-74
2022/07/27 09:38:52;;;;;;;3.70;3.40;;;24.80;56.60;;;24.11;46.08;97872.19;5010358;28;20468;-72
2022/07/27 09:41:20;;;;;;;4.17;3.87;;;24.80;57.20;;;23.96;46.49;97879.66;4993123;28;20463;-71
2022/07/27 09:43:50;;;;;;;6.90;4.33;;;24.60;57.50;;;24.02;46.43;97872.91;4996515;28;21038;-72
2022/07/27 09:46:30;;;;;;;3.90;3.60;;;24.70;57.40;;;23.91;46.25;97871.47;4996265;28;20462;-73
2022/07/27 09:48:58;;;;;;;4.80;4.40;;;24.70;56.90;;;23.97;45.94;97874.97;4997267;28;20547;-72
2022/07/27 09:51:25;;;;;;;6.27;3.80;;;24.60;56.90;;;24.33;45.46;97875.00;4998438;28;20516;-73
2022/07/27 09:53:54;;;;;;;4.90;3.90;;;24.90;56.70;;;24.46;45.03;97880.81;5002483;28;20470;-72
2022/07/27 09:56:26;;;;;;;4.77;3.63;;;25.10;56.60;;;24.47;46.05;97882.44;4998799;28;20458;-72
2022/07/27 09:58:56;;;;;;;3.83;3.37;;;25.20;57.00;;;24.01;46.64;97885.03;4997357;28;20473;-74
2022/07/27 10:01:27;;;;;;;4.80;3.53;;;24.90;56.90;;;23.93;46.76;97880.25;4993344;28;20474;-72
2022/07/27 10:03:57;;;;;;;4.33;3.97;;;24.80;57.20;;;23.95;46.62;97879.94;5000111;28;20456;-72
2022/07/27 10:06:25;;;;;;;4.00;3.60;;;24.70;57.10;;;24.30;45.92;97889.44;4996754;28;20513;-71
2022/07/27 10:08:54;;;;;;;5.60;3.93;;;24.90;57.10;;;24.55;45.64;97884.50;4996143;28;20471;-72
2022/07/27 10:11:23;;;;;;;4.70;3.27;;;25.20;56.70;;;24.73;45.05;97877.19;4997375;28;20517;-71
2022/07/27 10:13:53;;;;;;;4.27;3.87;;;25.40;56.30;;;24.90;44.82;97879.28;4995574;28;20553;-72
2022/07/27 10:16:24;;;;;;;4.00;3.60;;;25.50;56.30;;;24.72;45.04;97874.72;4993389;28;20468;-73
2022/07/27 10:19:06;;;;;;;5.23;4.00;;;25.60;56.10;;;24.13;46.03;97884.56;4999702;28;20475;-72
2022/07/27 10:21:34;;;;;;;4.27;3.73;;;25.10;56.40;;;23.31;47.79;97892.47;4996964;28;20464;-71
2022/07/27 10:24:05;;;;;;;4.07;3.63;;;24.40;56.80;;;23.17;48.40;97873.09;4999391;28;20549;-71
2022/07/27 10:26:35;;;;;;;4.53;4.23;;;24.10;57.40;;;22.84;49.42;97895.94;5012318;28;20482;-72
2022/07/27 10:29:06;;;;;;;4.17;3.80;;;23.70;57.90;;;23.05;49.06;97895.63;4995645;28;20471;-73